LFSB/MLH METAR and TAF weather

Enter ICAO airport designator
Station Type Date Time Source
LFSB METAR 2024/04/23 05:00 UTC NOAA

LFSB 230500Z AUTO 32007KT 9999 OVC006 01/00 Q1016 TEMPO 4000 BR BKN010


Station Type Date Time Source
LFSB Decoded METAR 2024/04/23 05:00 UTC NOAA

Bale-Mulhouse, France (LFSB) 47-36N 007-31E 271M
Apr 23, 2024 - 01:00 AM EDT / 2024.04.23 0500 UTC
Wind: from the NW (320 degrees) at 8 MPH (7 KT):0
Visibility: greater than 7 mile(s):0
Sky conditions: overcast
Temperature: 33 F (1 C)
Windchill: 26 F (-3 C):1
Dew Point: 32 F (0 C)
Relative Humidity: 93%
Pressure (altimeter): 30.00 in. Hg (1016 hPa)
ob: LFSB 230500Z AUTO 32007KT 9999 OVC006 01/00 Q1016 TEMPO 4000 BR BKN010
cycle: 5

Station Type Date Time Source
LFSB TAF 2024/04/23 04:42 UTC NOAA